createdAt,value
2019-05-18T00:01:30.080Z,99.90
2019-05-18T00:03:58.527Z,99.90
2019-05-18T00:06:27.241Z,99.90
2019-05-18T00:08:55.709Z,99.90
2019-05-18T00:11:24.247Z,99.90
2019-05-18T00:13:52.838Z,99.90
2019-05-18T00:16:21.340Z,99.90
2019-05-18T00:18:49.787Z,99.90
2019-05-18T00:21:18.423Z,99.90
2019-05-18T00:23:46.860Z,99.90
2019-05-18T00:26:15.331Z,99.90
2019-05-18T00:28:44.016Z,99.90
2019-05-18T00:31:12.582Z,99.90
2019-05-18T00:33:41.024Z,99.90
2019-05-18T00:36:09.706Z,99.90
2019-05-18T00:38:38.134Z,99.90
2019-05-18T00:41:06.711Z,99.90
2019-05-18T00:43:35.502Z,99.90
2019-05-18T00:46:04.976Z,99.90
2019-05-18T00:48:33.522Z,99.90
2019-05-18T00:51:02.268Z,99.90
2019-05-18T00:53:33.442Z,99.90
2019-05-18T00:56:01.881Z,99.90
2019-05-18T00:58:31.018Z,99.90
2019-05-18T01:00:59.544Z,99.90
2019-05-18T01:03:28.048Z,99.90
2019-05-18T01:05:56.758Z,99.90
2019-05-18T01:08:25.209Z,99.90
2019-05-18T01:10:53.606Z,99.90
2019-05-18T01:13:22.224Z,99.90
2019-05-18T01:15:50.664Z,99.90
2019-05-18T01:18:19.182Z,99.90
2019-05-18T01:20:48.017Z,99.90
2019-05-18T01:23:16.461Z,99.90
2019-05-18T01:25:44.966Z,99.90
2019-05-18T01:28:13.782Z,99.90
2019-05-18T01:30:42.281Z,99.90
2019-05-18T01:33:10.722Z,99.90
2019-05-18T01:35:39.458Z,99.90
2019-05-18T01:38:07.942Z,99.90
2019-05-18T01:40:36.365Z,99.90
2019-05-18T01:43:05.092Z,99.90
2019-05-18T01:45:33.878Z,99.90
2019-05-18T01:48:13.457Z,99.90
2019-05-18T01:50:32.903Z,99.90
2019-05-18T01:53:01.345Z,99.90
2019-05-18T01:55:29.802Z,99.90
2019-05-18T01:57:58.563Z,99.90
2019-05-18T02:00:27.142Z,99.90
2019-05-18T02:02:55.642Z,99.90
2019-05-18T02:05:24.618Z,99.90
2019-05-18T02:07:53.129Z,99.90
2019-05-18T02:10:21.614Z,99.90
2019-05-18T02:12:50.288Z,99.90
2019-05-18T02:15:19.361Z,99.90
2019-05-18T02:17:47.806Z,99.90
2019-05-18T02:20:17.026Z,99.90
2019-05-18T02:22:45.455Z,99.90
2019-05-18T02:25:14.114Z,99.90
2019-05-18T02:27:43.386Z,99.90
2019-05-18T02:30:16.994Z,99.90
2019-05-18T02:32:42.704Z,99.90
2019-05-18T02:35:11.711Z,99.90
2019-05-18T02:37:40.267Z,99.90
2019-05-18T02:40:09.102Z,99.90
2019-05-18T02:42:37.983Z,99.90
2019-05-18T02:45:08.265Z,99.90
2019-05-18T02:47:37.071Z,99.90
2019-05-18T02:50:07.713Z,99.90
2019-05-18T02:52:36.234Z,99.90
2019-05-18T02:55:06.721Z,99.90
2019-05-18T02:57:35.525Z,99.90
2019-05-18T03:00:07.315Z,99.90
2019-05-18T03:02:36.021Z,99.90
2019-05-18T03:05:09.083Z,99.90
2019-05-18T03:07:37.778Z,99.90
2019-05-18T03:10:07.372Z,99.90
2019-05-18T03:12:36.017Z,99.90
2019-05-18T03:15:06.974Z,99.90
2019-05-18T03:17:35.768Z,99.90
2019-05-18T03:20:25.345Z,99.90
2019-05-18T03:22:53.864Z,99.90
2019-05-18T03:25:22.339Z,99.90
2019-05-18T03:27:51.831Z,99.90
2019-05-18T03:30:20.336Z,99.90
2019-05-18T03:32:48.875Z,99.90
2019-05-18T03:35:18.224Z,99.90
2019-05-18T03:37:46.728Z,99.90
2019-05-18T03:40:15.580Z,99.90
2019-05-18T03:42:44.109Z,99.90
2019-05-18T03:45:12.777Z,99.90
2019-05-18T03:47:41.194Z,99.90
2019-05-18T03:50:11.119Z,99.90
2019-05-18T03:52:39.572Z,99.90
2019-05-18T03:55:08.319Z,99.90
2019-05-18T03:57:50.166Z,99.90
2019-05-18T04:00:20.010Z,99.90
2019-05-18T04:02:48.681Z,99.90
2019-05-18T04:05:17.569Z,99.90
2019-05-18T04:07:45.980Z,99.90
2019-05-18T04:10:16.036Z,99.90
2019-05-18T04:12:44.669Z,99.90
2019-05-18T04:15:13.504Z,99.90
2019-05-18T04:17:41.930Z,99.90
2019-05-18T04:20:10.986Z,99.90
2019-05-18T04:22:39.690Z,99.90
2019-05-18T04:25:08.248Z,99.90
2019-05-18T04:27:36.891Z,99.90
2019-05-18T04:30:08.204Z,99.90
2019-05-18T04:32:36.627Z,99.90
2019-05-18T04:35:07.263Z,99.90
2019-05-18T04:37:36.104Z,99.90
2019-05-18T04:40:06.263Z,99.90
2019-05-18T04:42:35.164Z,99.90
2019-05-18T04:45:05.170Z,99.90
2019-05-18T04:47:33.581Z,99.90
2019-05-18T04:50:05.768Z,99.90
2019-05-18T04:52:33.684Z,99.90
2019-05-18T04:55:02.109Z,99.90
2019-05-18T04:57:32.395Z,99.90
2019-05-18T05:00:00.927Z,99.90
2019-05-18T05:02:29.422Z,99.90
2019-05-18T05:04:58.077Z,99.90
2019-05-18T05:07:26.490Z,99.90
2019-05-18T05:09:54.940Z,99.90
2019-05-18T05:12:23.690Z,99.90
2019-05-18T05:14:52.117Z,99.90
2019-05-18T05:17:20.654Z,99.90
2019-05-18T05:19:49.244Z,99.90
2019-05-18T05:22:17.759Z,99.90
2019-05-18T05:24:46.278Z,99.90
2019-05-18T05:27:15.095Z,99.90
2019-05-18T05:29:43.507Z,99.90
2019-05-18T05:32:11.952Z,99.90
2019-05-18T05:34:40.674Z,99.90
2019-05-18T05:37:09.172Z,99.90
2019-05-18T05:39:37.998Z,99.90
2019-05-18T05:42:06.804Z,99.90
2019-05-18T05:44:35.302Z,99.90
2019-05-18T05:47:03.777Z,99.90
2019-05-18T05:49:32.663Z,99.90
2019-05-18T05:52:01.128Z,99.90
2019-05-18T05:54:29.567Z,99.90
2019-05-18T05:56:58.309Z,99.90
2019-05-18T05:59:26.748Z,99.90
2019-05-18T06:01:55.413Z,99.90
2019-05-18T06:04:24.104Z,99.90
2019-05-18T06:06:52.552Z,99.90
2019-05-18T06:09:21.037Z,99.90
2019-05-18T06:11:49.607Z,99.90
2019-05-18T06:14:18.050Z,99.90
2019-05-18T06:16:46.535Z,99.90
2019-05-18T06:19:15.138Z,99.90
2019-05-18T06:21:43.568Z,99.90
2019-05-18T06:24:11.981Z,99.90
2019-05-18T06:26:40.644Z,99.90
2019-05-18T06:29:09.093Z,99.90
2019-05-18T06:31:37.644Z,99.90
2019-05-18T06:34:06.372Z,99.90
2019-05-18T06:36:34.814Z,99.90
2019-05-18T06:39:04.990Z,99.90
2019-05-18T06:41:34.041Z,99.90
2019-05-18T06:44:03.012Z,99.90
2019-05-18T06:46:31.409Z,99.90
2019-05-18T06:48:59.966Z,99.60
2019-05-18T06:51:29.849Z,99.60
2019-05-18T06:53:59.807Z,99.00
2019-05-18T06:56:29.146Z,98.30
2019-05-18T06:58:59.148Z,98.60
2019-05-18T07:01:27.595Z,98.70
2019-05-18T07:03:56.236Z,97.30
2019-05-18T07:06:24.733Z,97.20
2019-05-18T07:08:53.179Z,97.10
2019-05-18T07:11:22.024Z,98.00
2019-05-18T07:13:52.163Z,97.20
2019-05-18T07:16:20.739Z,97.20
2019-05-18T07:18:52.654Z,96.20
2019-05-18T07:21:22.605Z,96.70
2019-05-18T07:23:51.507Z,97.30
2019-05-18T07:26:19.963Z,96.40
2019-05-18T07:28:48.755Z,95.20
2019-05-18T07:31:18.763Z,96.10
2019-05-18T07:33:47.189Z,95.00
2019-05-18T07:36:15.715Z,93.00
2019-05-18T07:38:44.515Z,93.30
2019-05-18T07:41:12.986Z,93.80
2019-05-18T07:43:41.405Z,94.30
2019-05-18T07:46:11.540Z,93.80
2019-05-18T07:48:40.040Z,93.50
2019-05-18T07:51:08.533Z,91.80
2019-05-18T07:53:37.342Z,89.20
2019-05-18T07:56:05.764Z,87.80
2019-05-18T07:58:34.459Z,89.50
2019-05-18T08:01:03.631Z,90.00
2019-05-18T08:03:32.148Z,89.50
2019-05-18T08:06:00.647Z,89.90
2019-05-18T08:08:29.274Z,89.70
2019-05-18T08:10:57.709Z,89.80
2019-05-18T08:13:26.261Z,91.20
2019-05-18T08:15:55.258Z,91.70
2019-05-18T08:18:23.683Z,90.10
2019-05-18T08:20:52.193Z,89.40
2019-05-18T08:23:20.971Z,88.40
2019-05-18T08:25:49.483Z,88.70
2019-05-18T08:28:18.051Z,85.90
2019-05-18T08:30:47.136Z,83.20
2019-05-18T08:33:15.556Z,80.20
2019-05-18T08:35:44.032Z,80.90
2019-05-18T08:38:12.836Z,81.60
2019-05-18T08:40:41.324Z,80.40
2019-05-18T08:43:09.999Z,79.20
2019-05-18T08:45:38.595Z,77.00
2019-05-18T08:48:07.048Z,75.70
2019-05-18T08:50:35.549Z,75.50
2019-05-18T08:53:04.595Z,73.40
2019-05-18T08:55:33.038Z,70.90
2019-05-18T08:58:01.563Z,72.00
2019-05-18T09:00:32.322Z,74.70
2019-05-18T09:03:00.811Z,75.90
2019-05-18T09:05:29.295Z,75.50
2019-05-18T09:07:57.952Z,74.70
2019-05-18T09:10:26.450Z,69.70
2019-05-18T09:12:56.406Z,66.70
2019-05-18T09:15:25.195Z,71.00
2019-05-18T09:17:53.717Z,77.00
2019-05-18T09:20:22.234Z,75.70
2019-05-18T09:22:50.667Z,71.50
2019-05-18T09:25:19.254Z,69.80
2019-05-18T09:27:47.734Z,64.30
2019-05-18T09:30:16.497Z,59.90
2019-05-18T09:32:44.954Z,54.60
2019-05-18T09:35:14.371Z,52.30
2019-05-18T09:37:42.951Z,59.40
2019-05-18T09:40:12.120Z,66.10
2019-05-18T09:42:40.537Z,72.20
2019-05-18T09:45:10.342Z,75.50
2019-05-18T09:47:38.890Z,75.30
2019-05-18T09:50:07.856Z,75.00
2019-05-18T09:52:44.970Z,74.70
2019-05-18T09:55:09.063Z,75.70
2019-05-18T09:57:37.584Z,68.10
2019-05-18T10:00:08.867Z,62.50
2019-05-18T10:02:37.359Z,56.30
2019-05-18T10:05:06.358Z,59.60
2019-05-18T10:07:34.823Z,57.50
2019-05-18T10:10:05.480Z,54.80
2019-05-18T10:12:34.220Z,53.20
2019-05-18T10:15:03.069Z,53.00
2019-05-18T10:17:31.695Z,55.80
2019-05-18T10:20:02.736Z,58.10
2019-05-18T10:22:31.155Z,56.00
2019-05-18T10:24:59.824Z,54.30
2019-05-18T10:27:28.306Z,54.20
2019-05-18T10:29:56.742Z,55.40
2019-05-18T10:32:25.455Z,54.70
2019-05-18T10:37:43.282Z,54.80
2019-05-18T10:40:12.150Z,51.50
2019-05-18T10:45:45.455Z,49.90
2019-05-18T10:48:15.185Z,49.20
2019-05-18T10:50:44.874Z,49.40
2019-05-18T10:53:27.772Z,48.10
2019-05-18T10:55:46.494Z,45.00
